createdAt,value
2023-04-27T00:01:00.758Z,3.30
2023-04-27T00:03:28.269Z,4.10
2023-04-27T00:05:55.155Z,4.10
2023-04-27T00:08:21.853Z,3.80
2023-04-27T00:10:48.346Z,3.80
2023-04-27T00:13:14.813Z,3.90
2023-04-27T00:15:41.324Z,3.50
2023-04-27T00:18:07.875Z,3.80
2023-04-27T00:20:34.395Z,3.30
2023-04-27T00:23:00.882Z,3.50
2023-04-27T00:25:27.422Z,2.90
2023-04-27T00:27:53.930Z,3.10
2023-04-27T00:30:20.398Z,3.10
2023-04-27T00:32:46.963Z,3.10
2023-04-27T00:35:13.429Z,2.90
2023-04-27T00:37:39.920Z,2.80
2023-04-27T00:40:07.217Z,2.90
2023-04-27T00:42:34.893Z,3.30
2023-04-27T00:45:01.590Z,2.90
2023-04-27T00:47:30.016Z,3.20
2023-04-27T00:49:56.798Z,2.80
2023-04-27T00:52:23.300Z,3.60
2023-04-27T00:54:51.734Z,2.90
2023-04-27T00:57:18.379Z,3.40
2023-04-27T00:59:44.885Z,3.50
2023-04-27T01:02:11.817Z,4.00
2023-04-27T01:04:38.402Z,3.50
2023-04-27T01:07:04.914Z,3.60
2023-04-27T01:09:31.426Z,3.50
2023-04-27T01:11:58.186Z,3.20
2023-04-27T01:14:24.654Z,3.40
2023-04-27T01:16:52.216Z,3.40
2023-04-27T01:19:18.744Z,3.90
2023-04-27T01:21:45.235Z,3.60
2023-04-27T01:24:11.719Z,3.50
2023-04-27T01:26:38.203Z,3.80
2023-04-27T01:29:04.678Z,4.20
2023-04-27T01:31:31.220Z,4.10
2023-04-27T01:33:57.727Z,3.50
2023-04-27T01:36:24.217Z,4.10
2023-04-27T01:38:50.721Z,3.70
2023-04-27T01:41:17.172Z,4.00
2023-04-27T01:43:43.719Z,3.50
2023-04-27T01:46:12.895Z,3.50
2023-04-27T01:48:40.712Z,3.90
2023-04-27T01:51:07.547Z,3.40
2023-04-27T01:53:34.248Z,3.80
2023-04-27T01:56:00.873Z,4.10
2023-04-27T01:58:27.537Z,3.60
2023-04-27T02:00:54.097Z,3.40
2023-04-27T02:03:20.711Z,3.90
2023-04-27T02:05:47.440Z,3.20
2023-04-27T02:08:14.626Z,3.50
2023-04-27T02:10:41.513Z,3.40
2023-04-27T02:13:08.020Z,3.40
2023-04-27T02:15:34.468Z,3.40
2023-04-27T02:18:01.339Z,3.30
2023-04-27T02:20:30.108Z,3.30
2023-04-27T02:22:56.739Z,3.90
2023-04-27T02:25:23.280Z,3.40
2023-04-27T02:27:49.792Z,4.00
2023-04-27T02:30:16.849Z,3.90
2023-04-27T02:32:43.896Z,4.60
2023-04-27T02:35:10.618Z,4.70
2023-04-27T02:37:37.072Z,5.00
2023-04-27T02:40:04.220Z,4.80
2023-04-27T02:42:30.657Z,4.70
2023-04-27T02:44:57.149Z,4.70
2023-04-27T02:47:23.672Z,4.90
2023-04-27T02:49:50.166Z,4.70
2023-04-27T02:52:16.763Z,5.20
2023-04-27T02:54:43.256Z,4.20
2023-04-27T02:57:09.748Z,5.00
2023-04-27T02:59:36.225Z,4.90
2023-04-27T03:02:02.702Z,4.10
2023-04-27T03:04:29.216Z,4.10
2023-04-27T03:06:55.731Z,4.00
2023-04-27T03:09:22.198Z,3.90
2023-04-27T03:11:48.668Z,4.00
2023-04-27T03:14:15.148Z,3.80
2023-04-27T03:16:41.712Z,4.00
2023-04-27T03:19:08.214Z,4.20
2023-04-27T03:21:34.667Z,3.90
2023-04-27T03:24:01.173Z,3.90
2023-04-27T03:26:27.770Z,3.60
2023-04-27T03:28:54.234Z,3.80
2023-04-27T03:31:20.801Z,3.50
2023-04-27T03:33:47.335Z,3.70
2023-04-27T03:36:13.982Z,4.20
2023-04-27T03:38:40.506Z,4.00
2023-04-27T03:41:07.052Z,3.60
2023-04-27T03:43:33.567Z,3.60
2023-04-27T03:46:00.115Z,4.30
2023-04-27T03:48:26.681Z,3.50
2023-04-27T03:50:53.148Z,4.10
2023-04-27T03:53:19.613Z,3.70
2023-04-27T03:55:46.106Z,4.10
2023-04-27T03:58:12.724Z,3.60
2023-04-27T04:00:39.962Z,3.90
2023-04-27T04:03:07.292Z,3.50
2023-04-27T04:05:34.217Z,3.80
2023-04-27T04:08:00.743Z,3.50
2023-04-27T04:10:27.208Z,3.60
2023-04-27T04:12:53.659Z,3.50
2023-04-27T04:15:20.240Z,3.90
2023-04-27T04:17:46.762Z,3.80
2023-04-27T04:20:13.705Z,3.80
2023-04-27T04:22:40.227Z,3.60
2023-04-27T04:25:07.226Z,3.80
2023-04-27T04:27:33.753Z,3.80
2023-04-27T04:30:00.590Z,3.80
2023-04-27T04:32:27.462Z,3.50
2023-04-27T04:34:53.933Z,3.90
2023-04-27T04:37:20.395Z,4.00
2023-04-27T04:39:46.865Z,4.00
2023-04-27T04:42:13.432Z,4.50
2023-04-27T04:44:39.895Z,4.50
2023-04-27T04:47:06.363Z,4.30
2023-04-27T04:49:32.832Z,4.20
2023-04-27T04:51:59.389Z,4.00
2023-04-27T04:54:25.832Z,4.10
2023-04-27T04:56:52.281Z,4.60
2023-04-27T04:59:18.777Z,4.50
2023-04-27T05:01:45.248Z,4.70
2023-04-27T05:04:11.944Z,4.50
2023-04-27T05:06:38.613Z,5.00
2023-04-27T05:09:05.096Z,4.40
2023-04-27T05:11:31.688Z,4.40
2023-04-27T05:13:58.138Z,4.00
2023-04-27T05:16:24.674Z,4.00
2023-04-27T05:18:51.181Z,4.00
2023-04-27T05:21:17.828Z,3.90
2023-04-27T05:23:44.329Z,3.70
2023-04-27T05:26:15.387Z,4.20
2023-04-27T05:28:42.605Z,3.80
2023-04-27T05:31:09.305Z,3.70
2023-04-27T05:33:35.798Z,3.50
2023-04-27T05:36:02.433Z,4.20
2023-04-27T05:38:28.891Z,6.20
2023-04-27T05:40:58.452Z,3.90
2023-04-27T05:43:25.591Z,3.80
2023-04-27T05:45:52.891Z,4.70
2023-04-27T05:48:20.028Z,4.10
2023-04-27T05:50:46.630Z,4.00
2023-04-27T05:53:13.110Z,4.20
2023-04-27T05:55:39.599Z,4.40
2023-04-27T05:58:08.647Z,4.10
2023-04-27T06:00:35.946Z,4.10
2023-04-27T06:03:02.589Z,3.50
2023-04-27T06:05:29.317Z,3.90
2023-04-27T06:07:55.893Z,3.80
2023-04-27T06:10:22.478Z,3.90
2023-04-27T06:12:48.975Z,3.60
2023-04-27T06:15:15.504Z,3.70
2023-04-27T06:17:42.074Z,3.80
2023-04-27T06:20:08.796Z,3.70
2023-04-27T06:22:38.859Z,3.30
2023-04-27T06:25:06.256Z,3.30
2023-04-27T06:27:33.598Z,3.50
2023-04-27T06:30:00.066Z,3.60
2023-04-27T06:32:26.633Z,3.00
2023-04-27T06:34:53.116Z,2.80
2023-04-27T06:37:19.647Z,3.00
2023-04-27T06:39:46.846Z,4.70
2023-04-27T06:42:13.523Z,4.20
2023-04-27T06:44:40.064Z,4.40
2023-04-27T06:47:06.597Z,4.00
2023-04-27T06:49:33.087Z,3.50
2023-04-27T06:52:02.100Z,3.70
2023-04-27T06:54:28.652Z,2.90
2023-04-27T06:56:55.145Z,2.80
2023-04-27T06:59:21.698Z,2.40
2023-04-27T07:01:48.246Z,2.60
2023-04-27T07:04:15.016Z,3.00
2023-04-27T07:06:41.587Z,2.60
2023-04-27T07:09:13.493Z,2.60
2023-04-27T07:11:52.881Z,2.70
2023-04-27T07:14:19.392Z,3.40
2023-04-27T07:16:45.852Z,3.00
2023-04-27T07:19:12.679Z,3.00
2023-04-27T07:21:39.472Z,3.10
2023-04-27T07:24:06.296Z,2.70
2023-04-27T07:26:32.737Z,2.50
2023-04-27T07:28:59.260Z,2.90
2023-04-27T07:31:25.794Z,2.50
2023-04-27T07:33:52.242Z,2.90
2023-04-27T07:36:18.816Z,2.70
2023-04-27T07:38:45.369Z,30.40
2023-04-27T07:41:11.857Z,4.00
2023-04-27T07:43:38.342Z,3.00
2023-04-27T07:46:04.999Z,2.80
2023-04-27T07:48:31.489Z,2.80
2023-04-27T07:50:58.116Z,2.50
2023-04-27T07:53:24.650Z,2.40
2023-04-27T07:55:51.108Z,2.50
2023-04-27T07:58:18.109Z,2.50
2023-04-27T08:00:44.639Z,2.10
2023-04-27T08:03:11.303Z,2.10
2023-04-27T08:05:38.359Z,2.50
2023-04-27T08:08:05.662Z,2.40
2023-04-27T08:10:32.287Z,2.70
2023-04-27T08:12:58.766Z,2.50
2023-04-27T08:15:25.379Z,4.00
2023-04-27T08:17:51.820Z,5.70
2023-04-27T08:20:18.394Z,4.40
2023-04-27T08:22:44.892Z,9.60
2023-04-27T08:25:11.374Z,4.80
2023-04-27T08:27:39.062Z,3.30
2023-04-27T08:30:06.287Z,3.40
2023-04-27T08:32:32.828Z,2.60
2023-04-27T08:34:59.502Z,2.10
2023-04-27T08:37:26.036Z,2.40
2023-04-27T08:39:52.516Z,2.30
2023-04-27T08:42:18.987Z,4.40
2023-04-27T08:44:45.476Z,3.60
2023-04-27T08:47:12.039Z,4.30
2023-04-27T08:49:38.915Z,3.50
2023-04-27T08:52:11.654Z,2.50
2023-04-27T08:54:38.172Z,2.30
2023-04-27T08:57:15.384Z,2.00
2023-04-27T08:59:42.547Z,3.20
2023-04-27T09:02:19.740Z,2.30
2023-04-27T09:04:46.465Z,2.20
2023-04-27T09:07:17.689Z,2.80
2023-04-27T09:09:45.211Z,2.50
2023-04-27T09:12:19.326Z,3.00
2023-04-27T09:15:06.489Z,2.30
2023-04-27T09:17:33.065Z,2.30
2023-04-27T09:20:07.345Z,2.80
2023-04-27T09:22:42.775Z,2.10
2023-04-27T09:25:09.386Z,2.50
2023-04-27T09:27:38.641Z,2.50
2023-04-27T09:30:15.025Z,4.30
2023-04-27T09:32:59.756Z,3.20
2023-04-27T09:35:28.792Z,4.50
2023-04-27T09:37:56.040Z,2.80
2023-04-27T09:40:25.391Z,2.20
2023-04-27T09:42:52.172Z,2.60
2023-04-27T09:45:19.080Z,2.50
2023-04-27T09:47:46.134Z,3.00
2023-04-27T09:50:14.059Z,3.00
2023-04-27T09:52:40.877Z,2.60
2023-04-27T09:55:13.666Z,2.40
2023-04-27T09:58:00.401Z,2.40
2023-04-27T10:00:48.518Z,2.40
2023-04-27T10:03:33.246Z,2.50
2023-04-27T10:06:27.482Z,2.50
2023-04-27T10:08:55.840Z,2.90
2023-04-27T10:11:37.863Z,2.70
2023-04-27T10:14:07.330Z,3.00
2023-04-27T10:16:47.388Z,2.30
2023-04-27T10:19:14.309Z,2.40
2023-04-27T10:22:01.227Z,2.70
2023-04-27T10:24:41.599Z,2.40
2023-04-27T10:27:15.973Z,2.80
2023-04-27T10:29:44.172Z,2.30
2023-04-27T10:32:13.381Z,3.00
2023-04-27T10:34:40.566Z,2.90
2023-04-27T10:37:11.138Z,2.60
2023-04-27T10:39:47.676Z,2.40
2023-04-27T10:42:26.795Z,2.70
2023-04-27T10:44:57.125Z,2.40
2023-04-27T10:47:23.707Z,2.60
2023-04-27T10:49:53.897Z,2.60
2023-04-27T10:52:20.488Z,2.50
2023-04-27T10:54:47.075Z,2.10
2023-04-27T10:57:14.384Z,2.40
2023-04-27T10:59:51.927Z,2.20
2023-04-27T11:02:25.976Z,2.20
2023-04-27T11:04:52.607Z,2.40
2023-04-27T11:07:26.722Z,2.40
2023-04-27T11:09:53.633Z,2.10
2023-04-27T11:12:20.208Z,3.00
2023-04-27T11:14:46.734Z,2.20
2023-04-27T11:17:13.423Z,2.30
2023-04-27T11:19:47.496Z,2.10
2023-04-27T11:22:15.439Z,2.40
2023-04-27T11:24:52.529Z,3.20
2023-04-27T11:27:19.792Z,2.50
2023-04-27T11:29:46.314Z,2.80
2023-04-27T11:32:19.743Z,2.70
2023-04-27T11:34:54.751Z,2.50
2023-04-27T11:37:24.834Z,2.40
2023-04-27T11:39:52.212Z,2.10
2023-04-27T11:42:20.015Z,2.40
2023-04-27T11:45:00.682Z,2.30
2023-04-27T11:47:29.788Z,2.50
2023-04-27T11:49:58.643Z,2.30
2023-04-27T11:52:32.794Z,2.70
2023-04-27T11:55:01.029Z,3.10
2023-04-27T11:57:30.244Z,2.70
2023-04-27T11:59:58.266Z,2.50
2023-04-27T12:02:24.801Z,2.40
2023-04-27T12:04:51.908Z,2.70
2023-04-27T12:07:19.484Z,2.60
2023-04-27T12:09:46.082Z,2.40
2023-04-27T12:12:13.215Z,2.10
2023-04-27T12:14:40.043Z,2.30
2023-04-27T12:17:06.639Z,2.40
2023-04-27T12:19:33.300Z,2.20
2023-04-27T12:21:59.883Z,2.20
2023-04-27T12:24:26.342Z,2.50
2023-04-27T12:26:52.877Z,2.30
2023-04-27T12:29:19.514Z,2.20
2023-04-27T12:31:46.269Z,2.90
2023-04-27T12:34:13.110Z,2.40
2023-04-27T12:36:39.861Z,2.40
2023-04-27T12:39:17.893Z,1.90
2023-04-27T12:41:45.471Z,2.30
2023-04-27T12:44:13.336Z,2.30
2023-04-27T12:46:41.240Z,2.40
2023-04-27T12:49:08.558Z,2.90
2023-04-27T12:51:35.598Z,2.20
2023-04-27T12:54:06.136Z,2.40
2023-04-27T12:56:33.479Z,2.30
2023-04-27T12:58:59.951Z,2.80
2023-04-27T13:01:27.141Z,2.70
2023-04-27T13:03:55.150Z,2.30
2023-04-27T13:06:22.127Z,2.60
2023-04-27T13:08:49.761Z,2.20
2023-04-27T13:11:16.985Z,2.30
2023-04-27T13:13:44.546Z,2.50
2023-04-27T13:16:11.914Z,2.20
2023-04-27T13:18:39.352Z,2.40
2023-04-27T13:21:05.898Z,2.50
2023-04-27T13:23:32.693Z,2.40
2023-04-27T13:25:59.176Z,2.40
2023-04-27T13:28:25.743Z,2.40
2023-04-27T13:30:52.251Z,2.40
2023-04-27T13:33:23.385Z,2.20
2023-04-27T13:38:17.465Z,2.40
2023-04-27T13:40:44.078Z,2.10
2023-04-27T13:43:10.552Z,2.60
2023-04-27T13:45:37.202Z,2.30
2023-04-27T13:48:03.821Z,2.60
2023-04-27T13:50:30.368Z,2.50
2023-04-27T13:52:56.881Z,2.30
2023-04-27T13:55:23.537Z,2.20
2023-04-27T13:57:49.998Z,2.10
2023-04-27T14:00:16.916Z,2.10
2023-04-27T14:02:43.540Z,2.20
2023-04-27T14:05:10.210Z,2.50
2023-04-27T14:07:36.904Z,2.20
2023-04-27T14:10:04.557Z,2.10
2023-04-27T14:12:31.991Z,2.00
2023-04-27T14:14:59.176Z,2.60
2023-04-27T14:17:25.682Z,2.60
2023-04-27T14:19:52.251Z,2.50
2023-04-27T14:22:18.773Z,3.80
2023-04-27T14:24:45.291Z,2.30
2023-04-27T14:27:11.767Z,2.60
2023-04-27T14:29:38.347Z,2.30
2023-04-27T14:32:05.065Z,2.40
2023-04-27T14:34:31.658Z,2.20
2023-04-27T14:36:58.166Z,2.30
2023-04-27T14:39:24.622Z,2.50
2023-04-27T14:41:51.095Z,2.40
2023-04-27T14:44:17.568Z,2.30
2023-04-27T14:46:44.130Z,2.20
2023-04-27T14:49:10.886Z,2.00
2023-04-27T14:51:37.371Z,2.10
2023-04-27T14:54:03.937Z,2.40
2023-04-27T14:56:30.615Z,2.40
2023-04-27T14:58:57.224Z,2.40
2023-04-27T15:01:23.739Z,2.40
2023-04-27T15:03:50.386Z,2.30
2023-04-27T15:06:16.945Z,2.20
2023-04-27T15:08:43.675Z,2.40
2023-04-27T15:11:10.202Z,2.20
2023-04-27T15:13:36.697Z,2.30
2023-04-27T15:16:03.300Z,2.20
2023-04-27T15:18:29.809Z,2.00
2023-04-27T15:20:58.084Z,3.00
2023-04-27T15:23:26.227Z,2.10
2023-04-27T15:25:57.294Z,2.20
2023-04-27T15:28:23.990Z,2.40
2023-04-27T15:30:50.615Z,2.10
2023-04-27T15:33:17.625Z,2.80
2023-04-27T15:35:44.311Z,2.40
2023-04-27T15:38:12.671Z,2.50
2023-04-27T15:40:39.829Z,2.10
2023-04-27T15:43:06.666Z,2.10
2023-04-27T15:45:33.605Z,2.10
2023-04-27T15:48:00.180Z,2.10
2023-04-27T15:50:26.694Z,2.40
2023-04-27T15:52:53.445Z,2.10
2023-04-27T15:55:19.947Z,2.20
2023-04-27T15:57:46.447Z,2.10
2023-04-27T16:00:13.619Z,2.20
2023-04-27T16:02:40.612Z,2.50
2023-04-27T16:05:08.499Z,2.40
2023-04-27T16:07:36.186Z,2.50
2023-04-27T16:10:03.904Z,2.00
2023-04-27T16:12:30.513Z,2.50
2023-04-27T16:14:57.242Z,2.50
2023-04-27T16:17:24.871Z,2.50
2023-04-27T16:19:51.395Z,2.90
2023-04-27T16:22:17.878Z,2.50
2023-04-27T16:24:44.527Z,2.70
2023-04-27T16:27:11.057Z,2.30
2023-04-27T16:29:37.530Z,2.40
2023-04-27T16:32:04.131Z,2.70
2023-04-27T16:34:30.641Z,2.20
2023-04-27T16:36:57.144Z,2.20
2023-04-27T16:39:23.602Z,2.80
2023-04-27T16:41:50.132Z,2.80
2023-04-27T16:44:16.655Z,2.70
2023-04-27T16:46:43.345Z,2.70
2023-04-27T16:49:10.238Z,2.90
2023-04-27T16:51:36.721Z,2.50
2023-04-27T16:54:03.273Z,2.40
2023-04-27T16:56:32.092Z,2.50
2023-04-27T16:58:58.878Z,2.50
2023-04-27T17:01:25.628Z,2.30
2023-04-27T17:03:52.256Z,2.30
2023-04-27T17:06:18.938Z,2.30
2023-04-27T17:08:45.446Z,2.60
2023-04-27T17:11:12.158Z,2.90
2023-04-27T17:13:38.674Z,2.40
2023-04-27T17:16:05.532Z,2.60
2023-04-27T17:18:32.171Z,2.60
2023-04-27T17:20:58.678Z,2.20
2023-04-27T17:23:25.290Z,2.40
2023-04-27T17:25:51.737Z,2.50
2023-04-27T17:28:18.221Z,2.10
2023-04-27T17:30:44.739Z,2.30
2023-04-27T17:33:11.341Z,2.40
2023-04-27T17:35:37.890Z,2.20
2023-04-27T17:38:04.407Z,2.50
2023-04-27T17:40:30.941Z,2.40
2023-04-27T17:42:57.479Z,2.60
2023-04-27T17:45:24.024Z,2.90
2023-04-27T17:47:50.512Z,2.90
2023-04-27T17:50:17.318Z,8.90
2023-04-27T17:52:43.776Z,4.90
2023-04-27T17:55:10.240Z,3.90
2023-04-27T17:57:36.705Z,3.50
2023-04-27T18:00:03.433Z,3.70
2023-04-27T18:02:30.021Z,3.80
2023-04-27T18:04:56.615Z,3.80
2023-04-27T18:07:23.421Z,3.10
2023-04-27T18:09:49.926Z,3.20
2023-04-27T18:12:16.433Z,3.10
2023-04-27T18:14:42.923Z,3.40
2023-04-27T18:17:09.399Z,3.00
2023-04-27T18:19:35.848Z,3.20
2023-04-27T18:22:02.356Z,3.70
2023-04-27T18:24:28.890Z,3.20
2023-04-27T18:26:55.352Z,3.20
2023-04-27T18:29:21.877Z,5.90
2023-04-27T18:31:48.402Z,9.10
2023-04-27T18:34:14.880Z,8.10
2023-04-27T18:36:42.383Z,6.80
2023-04-27T18:39:08.874Z,6.50
2023-04-27T18:41:35.403Z,5.90
2023-04-27T18:44:05.766Z,4.90
2023-04-27T18:46:32.975Z,4.70
2023-04-27T18:49:01.045Z,4.40
2023-04-27T18:51:27.899Z,4.20
2023-04-27T18:53:57.528Z,4.20
2023-04-27T18:56:24.214Z,4.10
2023-04-27T18:58:50.738Z,4.40
2023-04-27T19:01:22.142Z,4.00
2023-04-27T19:03:48.933Z,3.90
2023-04-27T19:06:15.887Z,3.70
2023-04-27T19:08:43.695Z,3.90
2023-04-27T19:11:11.331Z,4.30
2023-04-27T19:13:37.952Z,5.10
2023-04-27T19:16:04.612Z,5.40
2023-04-27T19:18:31.176Z,5.80
2023-04-27T19:20:57.690Z,6.50
2023-04-27T19:23:24.197Z,7.30
2023-04-27T19:25:51.849Z,8.60
2023-04-27T19:28:21.624Z,7.90
2023-04-27T19:30:48.998Z,6.30
2023-04-27T19:33:16.564Z,6.90
2023-04-27T19:35:44.078Z,6.10
2023-04-27T19:38:10.775Z,5.80
2023-04-27T19:40:37.259Z,5.70
2023-04-27T19:43:04.026Z,5.80
2023-04-27T19:45:30.615Z,5.40
2023-04-27T19:47:57.182Z,6.20
2023-04-27T19:50:23.719Z,4.70
2023-04-27T19:52:50.731Z,4.90
2023-04-27T19:55:17.371Z,4.90
2023-04-27T19:57:43.832Z,4.30
2023-04-27T20:00:10.848Z,4.00
2023-04-27T20:02:37.599Z,4.50
2023-04-27T20:05:05.235Z,3.30
2023-04-27T20:07:32.058Z,4.00
2023-04-27T20:09:58.518Z,3.80
2023-04-27T20:12:44.059Z,3.70
2023-04-27T20:15:11.475Z,4.40
2023-04-27T20:17:38.016Z,3.90
2023-04-27T20:20:04.913Z,4.20
2023-04-27T20:22:31.460Z,4.00
2023-04-27T20:24:58.855Z,4.20
2023-04-27T20:27:25.383Z,3.50
2023-04-27T20:29:51.872Z,4.10
2023-04-27T20:32:18.435Z,4.20
2023-04-27T20:34:44.910Z,4.60
2023-04-27T20:37:11.369Z,5.40
2023-04-27T20:39:37.873Z,5.40
2023-04-27T20:42:04.474Z,7.10
2023-04-27T20:44:30.987Z,6.20
2023-04-27T20:46:57.545Z,6.80
2023-04-27T20:49:34.416Z,5.40
2023-04-27T20:52:01.759Z,6.80
2023-04-27T20:54:28.434Z,6.40
2023-04-27T20:56:54.973Z,5.70
2023-04-27T20:59:21.516Z,5.70
2023-04-27T21:01:47.986Z,5.60
2023-04-27T21:04:14.815Z,6.00
2023-04-27T21:06:41.515Z,5.70
2023-04-27T21:09:08.053Z,5.80
2023-04-27T21:11:34.504Z,5.60
2023-04-27T21:14:00.994Z,5.80
2023-04-27T21:16:27.524Z,5.40
2023-04-27T21:18:54.533Z,6.20
2023-04-27T21:21:20.995Z,5.60
2023-04-27T21:23:49.871Z,5.60
2023-04-27T21:26:20.955Z,5.90
2023-04-27T21:28:47.437Z,5.40
2023-04-27T21:31:14.028Z,6.10
2023-04-27T21:33:40.564Z,6.00
2023-04-27T21:36:07.180Z,5.90
2023-04-27T21:38:33.648Z,5.90
2023-04-27T21:41:00.177Z,6.80
2023-04-27T21:43:26.674Z,6.80
2023-04-27T21:45:53.208Z,6.60
2023-04-27T21:48:19.714Z,7.10
2023-04-27T21:50:46.205Z,6.90
2023-04-27T21:53:12.663Z,6.60
2023-04-27T21:55:39.161Z,6.70
2023-04-27T21:58:05.649Z,6.90
2023-04-27T22:00:32.167Z,7.10
2023-04-27T22:02:59.098Z,7.70
2023-04-27T22:05:25.701Z,6.40
2023-04-27T22:07:52.212Z,7.10
2023-04-27T22:10:18.750Z,6.80
2023-04-27T22:12:45.245Z,6.80
2023-04-27T22:15:11.716Z,6.50
2023-04-27T22:17:38.280Z,6.50
2023-04-27T22:20:06.139Z,6.10
2023-04-27T22:22:32.644Z,6.60
2023-04-27T22:24:59.174Z,7.30
2023-04-27T22:27:29.984Z,7.00
2023-04-27T22:30:01.978Z,6.90
2023-04-27T22:32:28.861Z,6.70
2023-04-27T22:34:55.449Z,7.20
2023-04-27T22:37:21.962Z,7.30
2023-04-27T22:39:48.682Z,7.30
2023-04-27T22:42:15.229Z,6.80
2023-04-27T22:44:41.838Z,7.60
2023-04-27T22:47:08.545Z,7.60
2023-04-27T22:49:35.075Z,7.20
2023-04-27T22:52:01.548Z,7.10
2023-04-27T22:54:28.170Z,7.20
2023-04-27T22:56:54.827Z,7.60
2023-04-27T22:59:21.365Z,7.20
2023-04-27T23:01:48.100Z,7.10
2023-04-27T23:04:14.910Z,6.80
2023-04-27T23:06:41.645Z,8.00
2023-04-27T23:09:08.384Z,7.60
2023-04-27T23:11:34.901Z,8.00
2023-04-27T23:14:01.360Z,8.30
2023-04-27T23:16:27.884Z,7.90
2023-04-27T23:18:54.471Z,8.50
2023-04-27T23:21:20.942Z,8.00
2023-04-27T23:23:47.538Z,8.70
2023-04-27T23:26:14.795Z,8.40
2023-04-27T23:28:41.471Z,8.60
2023-04-27T23:31:08.453Z,8.30
2023-04-27T23:33:35.401Z,8.30
2023-04-27T23:36:02.301Z,9.70
2023-04-27T23:38:28.799Z,8.20
2023-04-27T23:40:55.333Z,8.10
2023-04-27T23:43:21.796Z,8.20
2023-04-27T23:45:52.378Z,8.80
2023-04-27T23:48:19.635Z,8.30
2023-04-27T23:50:46.184Z,7.90
2023-04-27T23:53:12.743Z,8.10
2023-04-27T23:55:39.225Z,8.40
2023-04-27T23:58:05.716Z,8.10
